createdAt,value
2022-08-30T00:01:02.953Z,100234.31
2022-08-30T00:03:52.182Z,100217.22
2022-08-30T00:06:40.080Z,100225.69
2022-08-30T00:09:27.904Z,100222.06
2022-08-30T00:12:15.833Z,100211.47
2022-08-30T00:15:06.950Z,100221.09
2022-08-30T00:17:56.824Z,100217.44
2022-08-30T00:20:46.803Z,100226.59
2022-08-30T00:23:34.593Z,100207.66
2022-08-30T00:26:22.595Z,100229.25
2022-08-30T00:29:10.395Z,100226.94
2022-08-30T00:31:58.362Z,100223.06
2022-08-30T00:34:46.225Z,100225.38
2022-08-30T00:37:34.553Z,100221.53
2022-08-30T00:40:27.315Z,100217.97
2022-08-30T00:43:25.406Z,100222.91
2022-08-30T00:46:15.753Z,100209.47
2022-08-30T00:49:07.367Z,100225.28
2022-08-30T00:51:56.299Z,100219.38
2022-08-30T00:54:46.767Z,100228.06
2022-08-30T00:57:35.880Z,100234.75
2022-08-30T01:00:23.771Z,100228.84
2022-08-30T01:03:11.936Z,100232.91
2022-08-30T01:06:01.640Z,100224.41
2022-08-30T01:08:49.583Z,100242.81
2022-08-30T01:11:39.181Z,100220.94
2022-08-30T01:14:27.892Z,100236.88
2022-08-30T01:17:17.392Z,100227.03
2022-08-30T01:20:13.567Z,100239.59
2022-08-30T01:23:14.475Z,100226.25
2022-08-30T01:26:03.546Z,100244.50
2022-08-30T01:28:57.341Z,100242.50
2022-08-30T01:31:46.349Z,100242.88
2022-08-30T01:34:34.186Z,100232.16
2022-08-30T01:37:32.043Z,100223.88
2022-08-30T01:40:20.719Z,100198.41
2022-08-30T01:43:08.825Z,100235.63
2022-08-30T01:45:56.710Z,100223.09
2022-08-30T01:48:53.005Z,100224.72
2022-08-30T01:51:43.323Z,100211.50
2022-08-30T01:54:37.830Z,100234.09
2022-08-30T01:57:29.390Z,100206.78
2022-08-30T02:00:18.599Z,100222.81
2022-08-30T02:03:07.046Z,100210.38
2022-08-30T02:05:55.565Z,100217.88
2022-08-30T02:08:44.483Z,100195.13
2022-08-30T02:11:32.281Z,100212.09
2022-08-30T02:14:21.139Z,100213.06
2022-08-30T02:17:11.772Z,100201.31
2022-08-30T02:19:59.612Z,100206.91
2022-08-30T02:22:49.333Z,100217.47
2022-08-30T02:25:37.562Z,100210.44
2022-08-30T02:28:25.863Z,100220.84
2022-08-30T02:31:13.865Z,100215.72
2022-08-30T02:34:01.992Z,100222.72
2022-08-30T02:36:49.836Z,100215.78
2022-08-30T02:39:37.618Z,100213.88
2022-08-30T02:42:25.400Z,100185.59
2022-08-30T02:45:13.425Z,100225.22
2022-08-30T02:48:01.514Z,100224.94
2022-08-30T02:50:51.754Z,100213.94
2022-08-30T02:53:41.737Z,100219.50
2022-08-30T02:56:29.639Z,100210.63
2022-08-30T02:59:18.931Z,100216.69
2022-08-30T03:02:06.724Z,100195.56
2022-08-30T03:04:54.627Z,100190.50
2022-08-30T03:07:43.640Z,100197.03
2022-08-30T03:10:31.823Z,100202.41
2022-08-30T03:13:19.660Z,100200.00
2022-08-30T03:16:07.554Z,100197.66
2022-08-30T03:18:55.615Z,100180.94
2022-08-30T03:21:43.419Z,100192.38
2022-08-30T03:24:31.436Z,100184.88
2022-08-30T03:27:19.227Z,100187.16
2022-08-30T03:30:09.447Z,100192.94
2022-08-30T03:32:57.255Z,100189.41
2022-08-30T03:35:45.405Z,100174.41
2022-08-30T03:38:33.360Z,100178.47
2022-08-30T03:41:21.488Z,100183.25
2022-08-30T03:44:10.172Z,100195.63
2022-08-30T03:46:57.932Z,100195.03
2022-08-30T03:49:46.684Z,100196.41
2022-08-30T03:52:34.507Z,100195.63
2022-08-30T03:55:22.407Z,100210.06
2022-08-30T03:58:10.278Z,100212.22
2022-08-30T04:00:58.153Z,100203.72
2022-08-30T04:03:46.054Z,100209.91
2022-08-30T04:06:34.445Z,100202.97
2022-08-30T04:09:22.618Z,100198.00
2022-08-30T04:12:10.493Z,100199.72
2022-08-30T04:14:58.534Z,100188.75
2022-08-30T04:17:47.196Z,100205.75
2022-08-30T04:20:35.025Z,100206.25
2022-08-30T04:23:22.823Z,100195.69
2022-08-30T04:26:11.139Z,100204.69
2022-08-30T04:28:59.336Z,100166.59
2022-08-30T04:31:47.356Z,100200.78
2022-08-30T04:34:35.203Z,100201.88
2022-08-30T04:37:23.241Z,100201.25
2022-08-30T04:40:12.020Z,100193.97
2022-08-30T04:43:00.192Z,100202.66
2022-08-30T04:45:48.252Z,100215.34
2022-08-30T04:48:37.989Z,100197.09
2022-08-30T04:51:25.819Z,100211.81
2022-08-30T04:54:13.583Z,100203.13
2022-08-30T04:57:01.772Z,100224.00
2022-08-30T04:59:49.625Z,100215.81
2022-08-30T05:02:39.531Z,100221.09
2022-08-30T05:05:39.769Z,100204.66
2022-08-30T05:08:27.675Z,100218.13
2022-08-30T05:11:17.000Z,100232.66
2022-08-30T05:14:05.780Z,100230.81
2022-08-30T05:16:53.625Z,100225.84
2022-08-30T05:19:41.459Z,100236.06
2022-08-30T05:22:29.260Z,100196.00
2022-08-30T05:25:20.950Z,100232.63
2022-08-30T05:28:09.508Z,100240.97
2022-08-30T05:30:57.447Z,100241.00
2022-08-30T05:33:46.534Z,100237.00
2022-08-30T05:36:37.401Z,100242.41
2022-08-30T05:39:25.250Z,100235.72
2022-08-30T05:42:13.208Z,100244.47
2022-08-30T05:45:06.118Z,100245.22
2022-08-30T05:47:54.110Z,100249.19
2022-08-30T05:50:41.985Z,100259.59
2022-08-30T05:53:29.779Z,100258.50
2022-08-30T05:56:25.809Z,100265.56
2022-08-30T05:59:15.349Z,100259.25
2022-08-30T06:02:03.934Z,100252.81
2022-08-30T06:04:51.839Z,100265.56
2022-08-30T06:07:40.400Z,100246.34
2022-08-30T06:10:28.249Z,100259.41
2022-08-30T06:13:16.114Z,100255.94
2022-08-30T06:16:04.189Z,100261.59
2022-08-30T06:18:53.041Z,100263.41
2022-08-30T06:21:42.804Z,100244.63
2022-08-30T06:24:53.741Z,100246.66
2022-08-30T06:27:38.732Z,100239.69
2022-08-30T06:30:26.570Z,100248.56
2022-08-30T06:33:14.375Z,100250.34
2022-08-30T06:36:07.138Z,100251.75
2022-08-30T06:38:57.463Z,100253.63
2022-08-30T06:41:45.313Z,100246.31
2022-08-30T06:44:33.297Z,100246.66
2022-08-30T06:47:21.499Z,100256.28
2022-08-30T06:50:12.245Z,100252.22
2022-08-30T06:53:05.749Z,100254.88
2022-08-30T06:56:00.479Z,100262.00
2022-08-30T06:58:49.593Z,100267.63
2022-08-30T07:01:37.718Z,100253.47
2022-08-30T07:04:26.587Z,100253.50
2022-08-30T07:07:14.982Z,100262.50
2022-08-30T07:10:05.734Z,100270.72
2022-08-30T07:12:53.581Z,100264.81
2022-08-30T07:15:44.672Z,100265.63
2022-08-30T07:18:50.476Z,100270.03
2022-08-30T07:21:43.957Z,100270.88
2022-08-30T07:24:31.835Z,100268.09
2022-08-30T07:27:19.857Z,100273.22
2022-08-30T07:30:09.234Z,100288.09
2022-08-30T07:32:58.029Z,100289.59
2022-08-30T07:35:45.958Z,100282.94
2022-08-30T07:38:34.616Z,100291.91
2022-08-30T07:41:35.561Z,100282.91
2022-08-30T07:44:25.027Z,100294.97
2022-08-30T07:47:13.178Z,100287.72
2022-08-30T07:50:01.741Z,100285.66
2022-08-30T07:52:49.804Z,100287.72
2022-08-30T07:55:37.794Z,100288.47
2022-08-30T07:58:25.774Z,100273.38
2022-08-30T08:01:14.817Z,100286.22
2022-08-30T08:04:03.190Z,100286.25
2022-08-30T08:06:51.120Z,100287.03
2022-08-30T08:09:39.423Z,100291.78
2022-08-30T08:12:29.037Z,100277.63
2022-08-30T08:15:19.347Z,100294.72
2022-08-30T08:18:10.248Z,100302.94
2022-08-30T08:20:59.785Z,100291.66
2022-08-30T08:23:49.193Z,100287.41
2022-08-30T08:26:45.490Z,100288.06
2022-08-30T08:29:33.796Z,100288.00
2022-08-30T08:32:21.857Z,100271.78
2022-08-30T08:35:11.560Z,100281.31
2022-08-30T08:38:00.959Z,100282.53
2022-08-30T08:41:32.350Z,100286.03
2022-08-30T08:45:13.943Z,100286.94
2022-08-30T08:48:45.549Z,100283.16
2022-08-30T08:52:03.009Z,100273.09
2022-08-30T08:55:05.034Z,100290.63
2022-08-30T08:57:56.641Z,100284.34
2022-08-30T09:00:47.145Z,100280.56
2022-08-30T09:03:39.465Z,100287.22
2022-08-30T09:06:54.054Z,100282.91
2022-08-30T09:09:45.988Z,100277.03
2022-08-30T09:12:37.570Z,100260.59
2022-08-30T09:15:34.661Z,100259.50
2022-08-30T09:18:50.203Z,100270.44
2022-08-30T09:21:44.779Z,100270.25
2022-08-30T09:24:53.093Z,100266.22
2022-08-30T09:27:47.524Z,100252.19
2022-08-30T09:30:38.223Z,100251.41
2022-08-30T09:33:29.055Z,100254.84
2022-08-30T09:36:29.446Z,100251.59
2022-08-30T09:39:30.245Z,100253.69
2022-08-30T09:42:28.788Z,100250.25
2022-08-30T09:45:33.289Z,100245.59
2022-08-30T09:48:47.419Z,100246.97
2022-08-30T09:51:52.393Z,100246.28
2022-08-30T09:55:14.348Z,100237.84
2022-08-30T09:58:40.459Z,100232.59
2022-08-30T10:01:59.511Z,100240.22
2022-08-30T10:05:27.771Z,100250.00
2022-08-30T10:08:42.506Z,100223.66
2022-08-30T10:12:29.887Z,100218.50
2022-08-30T10:15:40.611Z,100197.50
2022-08-30T10:18:54.869Z,100211.06
2022-08-30T10:21:59.497Z,100210.34
2022-08-30T10:24:54.083Z,100205.81
2022-08-30T10:28:03.780Z,100209.50
2022-08-30T10:31:11.855Z,100195.16
2022-08-30T10:34:09.960Z,100207.69
2022-08-30T10:37:11.497Z,100205.16
2022-08-30T10:40:30.563Z,100185.66
2022-08-30T10:43:54.357Z,100190.31
2022-08-30T10:46:53.928Z,100186.78
2022-08-30T10:49:49.645Z,100184.69
2022-08-30T10:53:12.601Z,100186.31
2022-08-30T10:56:10.476Z,100171.78
2022-08-30T10:59:06.889Z,100192.50
2022-08-30T11:02:19.241Z,100177.47
2022-08-30T11:05:29.367Z,100177.66
2022-08-30T11:09:09.468Z,100190.19
2022-08-30T11:12:55.576Z,100179.72
2022-08-30T11:16:15.463Z,100170.81
2022-08-30T11:19:34.687Z,100171.47
2022-08-30T11:22:39.235Z,100167.47
2022-08-30T11:26:06.629Z,100170.63
2022-08-30T11:29:02.268Z,100165.59
2022-08-30T11:32:20.483Z,100168.31
2022-08-30T11:35:12.130Z,100157.53
2022-08-30T11:38:18.322Z,100169.22
2022-08-30T11:41:32.533Z,100152.69
2022-08-30T11:44:27.774Z,100158.34
2022-08-30T11:47:55.538Z,100157.03
2022-08-30T11:51:06.392Z,100156.97
2022-08-30T11:55:00.699Z,100146.94
2022-08-30T11:58:28.006Z,100144.34
2022-08-30T12:01:52.249Z,100134.97
2022-08-30T12:04:49.214Z,100130.78
2022-08-30T12:08:04.079Z,100127.03
2022-08-30T12:11:13.097Z,100124.56
2022-08-30T12:14:09.399Z,100121.34
2022-08-30T12:17:22.063Z,100131.56
2022-08-30T12:20:30.792Z,100131.56
2022-08-30T12:23:33.928Z,100128.50
2022-08-30T12:26:32.534Z,100127.59
2022-08-30T12:29:33.073Z,100125.56
2022-08-30T12:32:25.661Z,100113.25
2022-08-30T12:35:28.195Z,100123.59
2022-08-30T12:38:27.557Z,100112.75
2022-08-30T12:41:23.876Z,100116.66
2022-08-30T12:44:29.632Z,100110.81
2022-08-30T12:47:29.512Z,100086.41
2022-08-30T12:50:36.414Z,100100.97
2022-08-30T12:53:37.103Z,100104.28
2022-08-30T12:56:57.816Z,100100.47
2022-08-30T13:00:02.203Z,100092.91
2022-08-30T13:02:57.784Z,100106.50
2022-08-30T13:05:53.036Z,100088.31
2022-08-30T13:08:51.653Z,100090.28
2022-08-30T13:11:48.646Z,100091.22
2022-08-30T13:14:44.323Z,100084.03
2022-08-30T13:17:34.993Z,100078.19
2022-08-30T13:20:26.585Z,100074.28
2022-08-30T13:23:23.973Z,100077.53
2022-08-30T13:26:14.743Z,100069.31
2022-08-30T13:29:26.657Z,100071.44
2022-08-30T13:32:17.400Z,100065.97
2022-08-30T13:35:07.099Z,100062.78
2022-08-30T13:38:00.093Z,100063.00
2022-08-30T13:40:48.371Z,100060.84
2022-08-30T13:46:55.491Z,100054.97
2022-08-30T13:49:46.826Z,100056.13
2022-08-30T13:52:37.603Z,100054.94
2022-08-30T13:55:29.103Z,100046.81
2022-08-30T13:58:20.777Z,100038.91
2022-08-30T14:01:12.526Z,100046.59
2022-08-30T14:04:18.067Z,100045.91
2022-08-30T14:07:19.816Z,100043.84
2022-08-30T14:13:20.108Z,100038.91
2022-08-30T14:16:28.445Z,100041.50
2022-08-30T14:19:19.443Z,100042.25
2022-08-30T14:22:08.824Z,100034.47
2022-08-30T14:25:01.451Z,100015.88
2022-08-30T14:27:53.430Z,100032.00
2022-08-30T14:30:43.605Z,100027.06
2022-08-30T14:33:34.329Z,100019.69
2022-08-30T14:36:25.664Z,100022.78
2022-08-30T14:39:19.720Z,100013.84
2022-08-30T14:42:11.780Z,100006.25
2022-08-30T14:45:07.908Z,99995.47
2022-08-30T14:48:02.752Z,99996.63
2022-08-30T14:51:01.617Z,99996.81
2022-08-30T14:53:57.114Z,100003.06
2022-08-30T14:56:48.121Z,100012.19
2022-08-30T14:59:39.881Z,99991.09
2022-08-30T15:02:30.641Z,99990.53
2022-08-30T15:05:22.380Z,99986.75
2022-08-30T15:08:15.884Z,99981.63
2022-08-30T15:11:12.794Z,99979.38
2022-08-30T15:14:03.380Z,99983.53
2022-08-30T15:16:56.312Z,99980.69
2022-08-30T15:19:45.189Z,99970.22
2022-08-30T15:22:34.616Z,99971.97
2022-08-30T15:25:27.208Z,99966.44
2022-08-30T15:28:18.212Z,99952.59
2022-08-30T15:31:09.600Z,99970.44
2022-08-30T15:34:01.500Z,99964.19
2022-08-30T15:36:52.090Z,99968.16
2022-08-30T15:39:42.229Z,99978.41
2022-08-30T15:42:34.125Z,99965.13
2022-08-30T15:45:24.770Z,99950.50
2022-08-30T15:48:17.952Z,99952.59
2022-08-30T15:51:08.223Z,99962.25
2022-08-30T15:54:00.964Z,99949.16
2022-08-30T15:56:59.110Z,99953.91
2022-08-30T15:59:49.974Z,99956.56
2022-08-30T16:02:40.715Z,99955.44
2022-08-30T16:05:32.483Z,99964.16
2022-08-30T16:08:23.152Z,99956.19
2022-08-30T16:11:17.027Z,99957.72
2022-08-30T16:14:08.569Z,99950.88
2022-08-30T16:16:58.465Z,99943.63
2022-08-30T16:19:50.610Z,99943.25
2022-08-30T16:22:45.775Z,99943.97
2022-08-30T16:25:40.653Z,99948.16
2022-08-30T16:28:30.657Z,99948.53
2022-08-30T16:31:22.960Z,99942.66
2022-08-30T16:34:17.293Z,99939.97
2022-08-30T16:37:07.700Z,99930.88
2022-08-30T16:40:00.301Z,99936.94
2022-08-30T16:42:51.282Z,99937.69
2022-08-30T16:45:41.253Z,99936.38
2022-08-30T16:48:31.003Z,99937.91
2022-08-30T16:51:28.502Z,99939.22
2022-08-30T16:54:20.856Z,99935.97
2022-08-30T16:57:12.312Z,99930.88
2022-08-30T17:00:01.958Z,99922.88
2022-08-30T17:02:56.702Z,99923.63
2022-08-30T17:05:48.822Z,99932.00
2022-08-30T17:08:39.811Z,99941.88
2022-08-30T17:11:32.013Z,99948.66
2022-08-30T17:17:32.796Z,99948.47
2022-08-30T17:20:26.213Z,99941.59
2022-08-30T17:23:18.459Z,99950.13
2022-08-30T17:26:10.931Z,99948.44
2022-08-30T17:29:03.034Z,99947.69
2022-08-30T17:31:53.623Z,99954.25
2022-08-30T17:34:45.428Z,99961.94
2022-08-30T17:37:36.044Z,99962.84
2022-08-30T17:40:26.620Z,99962.25
2022-08-30T17:43:18.068Z,99978.66
2022-08-30T17:46:18.473Z,99966.47
2022-08-30T17:49:10.571Z,99979.31
2022-08-30T17:52:02.250Z,99978.28
2022-08-30T17:54:53.511Z,99984.44
2022-08-30T17:57:44.295Z,99981.13
2022-08-30T18:00:36.045Z,99982.91
2022-08-30T18:03:26.676Z,99986.03
2022-08-30T18:06:18.629Z,99991.59
2022-08-30T18:09:11.367Z,99998.72
2022-08-30T18:12:01.073Z,99998.50
2022-08-30T18:14:52.604Z,99995.38
2022-08-30T18:17:43.060Z,99993.00
2022-08-30T18:20:34.989Z,100005.16
2022-08-30T18:23:27.171Z,100001.88
2022-08-30T18:26:19.114Z,100011.50
2022-08-30T18:29:18.943Z,100006.72
2022-08-30T18:32:18.421Z,100019.69
2022-08-30T18:35:09.023Z,100021.22
2022-08-30T18:37:59.595Z,100028.72
2022-08-30T18:40:51.866Z,100036.69
2022-08-30T18:43:43.896Z,100038.84
2022-08-30T18:46:35.023Z,100052.25
2022-08-30T18:49:32.122Z,100041.78
2022-08-30T18:52:25.252Z,100047.66
2022-08-30T18:55:16.521Z,100047.50
2022-08-30T18:58:07.032Z,100036.38
2022-08-30T19:00:58.969Z,100038.84
2022-08-30T19:03:51.539Z,100046.22
2022-08-30T19:06:45.416Z,100026.47
2022-08-30T19:09:36.881Z,100045.94
2022-08-30T19:12:27.614Z,100030.66
2022-08-30T19:15:17.891Z,100036.47
2022-08-30T19:18:17.509Z,100038.88
2022-08-30T19:21:06.359Z,100042.31
2022-08-30T19:24:02.156Z,100046.97
2022-08-30T19:26:52.614Z,100037.31
2022-08-30T19:29:45.100Z,100047.41
2022-08-30T19:32:34.561Z,100032.56
2022-08-30T19:35:25.195Z,100043.94
2022-08-30T19:38:13.466Z,100046.19
2022-08-30T19:41:02.288Z,100054.03
2022-08-30T19:43:50.637Z,100058.91
2022-08-30T19:46:41.118Z,100044.09
2022-08-30T19:49:30.371Z,100057.22
2022-08-30T19:52:21.825Z,100060.16
2022-08-30T19:55:10.814Z,100047.63
2022-08-30T19:58:00.308Z,100053.06
2022-08-30T20:03:49.355Z,100067.53
2022-08-30T20:06:42.487Z,100068.09
2022-08-30T20:09:31.286Z,100060.59
2022-08-30T20:12:20.133Z,100061.69
2022-08-30T20:15:11.731Z,100067.19
2022-08-30T20:18:05.699Z,100064.75
2022-08-30T20:20:56.682Z,100070.97
2022-08-30T20:23:44.715Z,100079.22
2022-08-30T20:24:23.997Z,99947.88
2022-08-30T20:26:34.465Z,100085.13
2022-08-30T20:29:22.522Z,100089.81
2022-08-30T20:32:10.503Z,100081.19
2022-08-30T20:34:59.101Z,100090.34
2022-08-30T20:37:47.456Z,100096.75
2022-08-30T20:40:38.469Z,100102.41
2022-08-30T20:43:29.566Z,100100.34
2022-08-30T20:46:20.118Z,100098.06
2022-08-30T20:49:08.361Z,100095.50
2022-08-30T20:51:56.417Z,100097.53
2022-08-30T20:54:45.313Z,100101.66
2022-08-30T20:57:33.868Z,100100.88
2022-08-30T21:00:22.061Z,100103.69
2022-08-30T21:03:27.745Z,100100.13
2022-08-30T21:06:19.099Z,100086.56
2022-08-30T21:09:09.029Z,100095.00
2022-08-30T21:11:58.298Z,100097.56
2022-08-30T21:14:46.357Z,100096.63
2022-08-30T21:17:34.334Z,100096.09
2022-08-30T21:20:22.785Z,100095.63
2022-08-30T21:23:11.213Z,100077.00
2022-08-30T21:25:59.223Z,100106.94
2022-08-30T21:28:52.740Z,100103.38
2022-08-30T21:31:40.705Z,100111.03
2022-08-30T21:34:28.735Z,100122.31
2022-08-30T21:37:16.709Z,100100.31
2022-08-30T21:40:08.128Z,100110.03
2022-08-30T21:42:56.659Z,100115.16
2022-08-30T21:45:45.628Z,100106.19
2022-08-30T21:48:37.298Z,100099.81
2022-08-30T21:51:25.785Z,100108.28
2022-08-30T21:54:15.811Z,100112.88
2022-08-30T21:57:05.148Z,100111.88
2022-08-30T21:59:53.131Z,100125.22
2022-08-30T22:02:41.551Z,100115.22
2022-08-30T22:05:29.681Z,100111.41
2022-08-30T22:08:17.581Z,100117.03
2022-08-30T22:11:10.522Z,100117.03
2022-08-30T22:14:00.601Z,100114.22
2022-08-30T22:16:48.929Z,100127.78
2022-08-30T22:19:37.152Z,100119.84
2022-08-30T22:22:25.113Z,100129.59
2022-08-30T22:25:13.246Z,100122.69
2022-08-30T22:28:01.334Z,100126.03
2022-08-30T22:30:52.763Z,100120.13
2022-08-30T22:33:41.496Z,100108.63
2022-08-30T22:36:32.734Z,100115.78
2022-08-30T22:39:20.989Z,100131.66
2022-08-30T22:42:09.845Z,100115.28
2022-08-30T22:44:57.699Z,100124.50
2022-08-30T22:47:45.886Z,100131.91
2022-08-30T22:50:33.751Z,100126.28
2022-08-30T22:53:21.779Z,100129.09
2022-08-30T22:56:16.548Z,100133.69
2022-08-30T22:59:05.711Z,100132.69
2022-08-30T23:01:53.774Z,100125.75
2022-08-30T23:04:41.819Z,100122.94
2022-08-30T23:07:29.770Z,100136.78
2022-08-30T23:10:18.341Z,100111.69
2022-08-30T23:13:06.258Z,100133.72
2022-08-30T23:15:54.156Z,100135.50
2022-08-30T23:18:44.636Z,100133.97
2022-08-30T23:21:32.712Z,100143.94
2022-08-30T23:24:39.132Z,100140.59
2022-08-30T23:27:45.598Z,100142.16
2022-08-30T23:30:51.987Z,100150.06
2022-08-30T23:33:58.736Z,100144.97
2022-08-30T23:37:05.991Z,100160.84
2022-08-30T23:40:12.419Z,100152.88
2022-08-30T23:43:20.761Z,100142.91
2022-08-30T23:46:27.623Z,100157.25
2022-08-30T23:49:34.384Z,100152.38
2022-08-30T23:52:41.298Z,100157.50
2022-08-30T23:55:47.678Z,100154.69
2022-08-30T23:58:54.481Z,100153.91
